Time;durP1;ratioP1;P1;durP2;ratioP2;P2;SDS_P1;SDS_P2;PMS_P1;PMS_P2;Temp;Humidity;BMP_temperature;BMP_pressure;BME280_temperature;BME280_humidity;BME280_pressure;Samples;Min_cycle;Max_cycle;Signal;HPM_P1;HPM_P2
2022/02/23 00:00:04;;;;;;;;;;;;;;;;;;4993831;28;19918;-54
2022/02/23 00:02:29;;;;;;;;;;;;;;;;;;4996266;28;19917;-57
2022/02/23 00:04:55;;;;;;;;;;;;;;;;;;4991706;28;19972;-56
2022/02/23 00:07:22;;;;;;;;;;;;;;;;;;4993901;28;20605;-54
2022/02/23 00:09:47;;;;;;;;;;;;;;;;;;4994080;28;20184;-56
2022/02/23 00:12:12;;;;;;;;;;;;;;;;;;4991005;28;19996;-56
2022/02/23 00:14:37;;;;;;;;;;;;;;;;;;4997230;28;19968;-57
2022/02/23 00:17:02;;;;;;;;;;;;;;;;;;4999515;28;19912;-58
2022/02/23 00:19:28;;;;;;;;;;;;;;;;;;4996676;28;19956;-55
2022/02/23 00:21:53;;;;;;;;;;;;;;;;;;4991115;28;19916;-54
2022/02/23 00:24:18;;;;;;;;;;;;;;;;;;4993048;28;19920;-59
2022/02/23 00:26:43;;;;;;;;;;;;;;;;;;4994641;28;20599;-55
2022/02/23 00:29:09;;;;;;;;;;;;;;;;;;4991431;28;19913;-58
2022/02/23 00:31:34;;;;;;;;;;;;;;;;;;4982026;28;19925;-56
2022/02/23 00:33:59;;;;;;;;;;;;;;;;;;4993576;28;19952;-58
2022/02/23 00:36:24;;;;;;;;;;;;;;;;;;4991466;28;20212;-56
2022/02/23 00:38:49;;;;;;;;;;;;;;;;;;4994526;28;20024;-56
2022/02/23 00:41:15;;;;;;;;;;;;;;;;;;4989295;28;19922;-55
2022/02/23 00:43:40;;;;;;;;;;;;;;;;;;4994348;28;19973;-56
2022/02/23 00:46:05;;;;;;;;;;;;;;;;;;4989441;28;19944;-57
2022/02/23 00:48:30;;;;;;;;;;;;;;;;;;4980837;28;20051;-57
2022/02/23 00:50:56;;;;;;;;;;;;;;;;;;4994752;28;19926;-57
2022/02/23 00:53:21;;;;;;;;;;;;;;;;;;4991906;28;19944;-57
2022/02/23 00:55:46;;;;;;;;;;;;;;;;;;4994607;28;19913;-53
2022/02/23 00:58:11;;;;;;;;;;;;;;;;;;4990654;28;20417;-58
2022/02/23 01:00:37;;;;;;;;;;;;;;;;;;4989540;28;19972;-59
2022/02/23 01:03:03;;;;;;;;;;;;;;;;;;4990005;28;19917;-56
2022/02/23 01:05:28;;;;;;;;;;;;;;;;;;4987466;28;19952;-57
2022/02/23 01:07:53;;;;;;;;;;;;;;;;;;4993466;28;19917;-57
2022/02/23 01:10:19;;;;;;;;;;;;;;;;;;4988505;28;19973;-58
2022/02/23 01:12:44;;;;;;;;;;;;;;;;;;4987190;28;19917;-55
2022/02/23 01:15:09;;;;;;;;;;;;;;;;;;4990749;28;19913;-57
2022/02/23 01:17:35;;;;;;;;;;;;;;;;;;4995246;28;19941;-55
2022/02/23 01:20:00;;;;;;;;;;;;;;;;;;4997430;28;19929;-56
2022/02/23 01:22:25;;;;;;;;;;;;;;;;;;4989605;28;20270;-57
2022/02/23 01:24:50;;;;;;;;;;;;;;;;;;4992744;28;19963;-55
2022/02/23 01:27:16;;;;;;;;;;;;;;;;;;4990173;28;20323;-55
2022/02/23 01:29:41;;;;;;;;;;;;;;;;;;4989606;28;19926;-54
2022/02/23 01:32:06;;;;;;;;;;;;;;;;;;4999832;28;20908;-53
2022/02/23 01:34:31;;;;;;;;;;;;;;;;;;4992043;28;19920;-53
2022/02/23 01:36:56;;;;;;;;;;;;;;;;;;4988283;28;20277;-57
2022/02/23 01:39:22;;;;;;;;;;;;;;;;;;4994869;28;19917;-52
2022/02/23 01:41:47;;;;;;;;;;;;;;;;;;4991310;28;19914;-56
2022/02/23 01:44:12;;;;;;;;;;;;;;;;;;4995657;28;19914;-56
2022/02/23 01:46:37;;;;;;;;;;;;;;;;;;5002608;28;19918;-52
2022/02/23 01:49:03;;;;;;;;;;;;;;;;;;4991872;28;20020;-53
2022/02/23 01:51:30;;;;;;;;;;;;;;;;;;4992916;28;19956;-56
2022/02/23 01:53:55;;;;;;;;;;;;;;;;;;4993781;28;19918;-55
2022/02/23 01:56:20;;;;;;;;;;;;;;;;;;4994094;28;20024;-54
2022/02/23 01:58:45;;;;;;;;;;;;;;;;;;4989587;28;19910;-56
2022/02/23 02:01:11;;;;;;;;;;;;;;;;;;4989220;28;19921;-55
2022/02/23 02:03:37;;;;;;;;;;;;;;;;;;4994739;28;19983;-56
2022/02/23 02:06:02;;;;;;;;;;;;;;;;;;4993472;28;19963;-55
2022/02/23 02:08:28;;;;;;;;;;;;;;;;;;4999475;28;19920;-55
2022/02/23 02:10:53;;;;;;;;;;;;;;;;;;4991285;28;19914;-56
2022/02/23 02:13:18;;;;;;;;;;;;;;;;;;4990548;28;20098;-56
2022/02/23 02:15:43;;;;;;;;;;;;;;;;;;4991677;28;20519;-56
2022/02/23 02:18:09;;;;;;;;;;;;;;;;;;4991696;28;19925;-55
2022/02/23 02:20:34;;;;;;;;;;;;;;;;;;4993731;28;20211;-56
2022/02/23 02:22:59;;;;;;;;;;;;;;;;;;4989493;28;19921;-55
2022/02/23 02:25:24;;;;;;;;;;;;;;;;;;4989068;28;20628;-55
2022/02/23 02:27:49;;;;;;;;;;;;;;;;;;4989931;28;19914;-56
2022/02/23 02:30:15;;;;;;;;;;;;;;;;;;4989730;28;20462;-53
2022/02/23 02:32:40;;;;;;;;;;;;;;;;;;5001046;28;20726;-55
2022/02/23 02:35:05;;;;;;;;;;;;;;;;;;4989557;28;19910;-55
2022/02/23 02:37:30;;;;;;;;;;;;;;;;;;4988983;28;19980;-57
2022/02/23 02:39:56;;;;;;;;;;;;;;;;;;4989832;28;20047;-55
2022/02/23 02:42:21;;;;;;;;;;;;;;;;;;4990076;28;20339;-58
2022/02/23 02:44:46;;;;;;;;;;;;;;;;;;4993742;28;19921;-56
2022/02/23 02:47:11;;;;;;;;;;;;;;;;;;4991545;28;20285;-56
2022/02/23 02:49:37;;;;;;;;;;;;;;;;;;4989650;28;19989;-56
2022/02/23 02:52:03;;;;;;;;;;;;;;;;;;4994537;28;20612;-56
2022/02/23 02:54:29;;;;;;;;;;;;;;;;;;4995802;28;19913;-56
2022/02/23 02:56:54;;;;;;;;;;;;;;;;;;4998153;28;19928;-56
2022/02/23 02:59:19;;;;;;;;;;;;;;;;;;4990914;28;19921;-55
2022/02/23 03:01:44;;;;;;;;;;;;;;;;;;4992752;28;19968;-53
2022/02/23 03:04:10;;;;;;;;;;;;;;;;;;4997388;28;19917;-56
2022/02/23 03:06:35;;;;;;;;;;;;;;;;;;4991660;28;20011;-58
2022/02/23 03:09:01;;;;;;;;;;;;;;;;;;4996646;28;19949;-57
2022/02/23 03:11:26;;;;;;;;;;;;;;;;;;4992381;28;20053;-56
2022/02/23 03:13:51;;;;;;;;;;;;;;;;;;4991933;28;19925;-56
2022/02/23 03:16:16;;;;;;;;;;;;;;;;;;4997141;28;19922;-54
2022/02/23 03:18:42;;;;;;;;;;;;;;;;;;4994378;28;19913;-58
2022/02/23 03:21:07;;;;;;;;;;;;;;;;;;4995035;28;19922;-60
2022/02/23 03:23:32;;;;;;;;;;;;;;;;;;4995804;28;19921;-55
2022/02/23 03:25:57;;;;;;;;;;;;;;;;;;4990269;28;19913;-56
2022/02/23 03:28:23;;;;;;;;;;;;;;;;;;4997476;28;19968;-57
2022/02/23 03:30:48;;;;;;;;;;;;;;;;;;4993397;28;19971;-57
2022/02/23 03:33:13;;;;;;;;;;;;;;;;;;4998383;28;20038;-58
2022/02/23 03:35:38;;;;;;;;;;;;;;;;;;4993049;28;19921;-58
2022/02/23 03:38:03;;;;;;;;;;;;;;;;;;4991715;28;20418;-57
2022/02/23 03:40:29;;;;;;;;;;;;;;;;;;4993953;28;20355;-55
2022/02/23 03:42:54;;;;;;;;;;;;;;;;;;4992360;28;19937;-57
2022/02/23 03:45:19;;;;;;;;;;;;;;;;;;4997146;28;19914;-56
2022/02/23 03:47:44;;;;;;;;;;;;;;;;;;4992201;28;19914;-56
2022/02/23 03:50:09;;;;;;;;;;;;;;;;;;4991548;28;20061;-55
2022/02/23 03:52:35;;;;;;;;;;;;;;;;;;4998769;28;20012;-57
2022/02/23 03:55:00;;;;;;;;;;;;;;;;;;4994586;28;19921;-58
2022/02/23 03:57:25;;;;;;;;;;;;;;;;;;4996108;28;19917;-56
2022/02/23 03:59:50;;;;;;;;;;;;;;;;;;4994410;28;19914;-57
2022/02/23 04:02:16;;;;;;;;;;;;;;;;;;4993283;28;20016;-55
2022/02/23 04:04:41;;;;;;;;;;;;;;;;;;4994952;28;19917;-58
2022/02/23 04:07:07;;;;;;;;;;;;;;;;;;4998545;28;20315;-56
2022/02/23 04:09:32;;;;;;;;;;;;;;;;;;4994837;28;20362;-56
2022/02/23 04:11:57;;;;;;;;;;;;;;;;;;4994670;28;19921;-54
2022/02/23 04:14:22;;;;;;;;;;;;;;;;;;4993604;28;21130;-57
2022/02/23 04:16:47;;;;;;;;;;;;;;;;;;4993905;28;19921;-54
2022/02/23 04:19:13;;;;;;;;;;;;;;;;;;4990665;28;20393;-56
2022/02/23 04:21:38;;;;;;;;;;;;;;;;;;4997055;28;19921;-55
2022/02/23 04:24:03;;;;;;;;;;;;;;;;;;4993536;28;20000;-55
2022/02/23 04:26:28;;;;;;;;;;;;;;;;;;4989731;28;20353;-56
2022/02/23 04:28:53;;;;;;;;;;;;;;;;;;5001026;28;20079;-53
2022/02/23 04:31:20;;;;;;;;;;;;;;;;;;4992858;28;19961;-56
2022/02/23 04:33:45;;;;;;;;;;;;;;;;;;4984565;28;19957;-57
2022/02/23 04:36:10;;;;;;;;;;;;;;;;;;4989521;28;19929;-54
2022/02/23 04:38:37;;;;;;;;;;;;;;;;;;4993578;28;19944;-55
2022/02/23 04:41:02;;;;;;;;;;;;;;;;;;4994585;28;19961;-55
2022/02/23 04:43:32;;;;;;;;;;;;;;;;;;4991768;28;19917;-55
2022/02/23 04:45:58;;;;;;;;;;;;;;;;;;4992511;28;20347;-55
2022/02/23 04:48:23;;;;;;;;;;;;;;;;;;4995175;28;19949;-53
2022/02/23 04:50:48;;;;;;;;;;;;;;;;;;4990079;28;20064;-56
2022/02/23 04:53:13;;;;;;;;;;;;;;;;;;4995502;28;20465;-57
2022/02/23 04:55:39;;;;;;;;;;;;;;;;;;4990445;28;19913;-56
2022/02/23 04:58:07;;;;;;;;;;;;;;;;;;4995525;28;19913;-56
2022/02/23 05:00:32;;;;;;;;;;;;;;;;;;4992497;28;19924;-55
2022/02/23 05:02:58;;;;;;;;;;;;;;;;;;4991500;28;19914;-56
2022/02/23 05:05:23;;;;;;;;;;;;;;;;;;4992807;28;19941;-56
2022/02/23 05:07:48;;;;;;;;;;;;;;;;;;4989470;28;20260;-56
2022/02/23 05:10:13;;;;;;;;;;;;;;;;;;4997477;28;19925;-54
2022/02/23 05:12:38;;;;;;;;;;;;;;;;;;4990808;28;20017;-56
2022/02/23 05:15:04;;;;;;;;;;;;;;;;;;4988649;28;19945;-58
2022/02/23 05:17:29;;;;;;;;;;;;;;;;;;4997710;28;19918;-56
2022/02/23 05:19:54;;;;;;;;;;;;;;;;;;4985122;28;19972;-57
2022/02/23 05:22:20;;;;;;;;;;;;;;;;;;4991916;28;20359;-55
2022/02/23 05:24:45;;;;;;;;;;;;;;;;;;4994379;28;19909;-55
2022/02/23 05:27:10;;;;;;;;;;;;;;;;;;4990740;28;20274;-58
2022/02/23 05:29:35;;;;;;;;;;;;;;;;;;4993270;28;20468;-56
2022/02/23 05:32:00;;;;;;;;;;;;;;;;;;4992366;28;20299;-57
2022/02/23 05:34:26;;;;;;;;;;;;;;;;;;4995854;28;19929;-56
2022/02/23 05:36:51;;;;;;;;;;;;;;;;;;4988408;28;19984;-56
2022/02/23 05:39:16;;;;;;;;;;;;;;;;;;4987313;28;19924;-57
2022/02/23 05:41:41;;;;;;;;;;;;;;;;;;4996658;28;20366;-54
2022/02/23 05:44:07;;;;;;;;;;;;;;;;;;4988709;28;19956;-56
2022/02/23 05:46:32;;;;;;;;;;;;;;;;;;4993071;28;19961;-55
2022/02/23 05:48:57;;;;;;;;;;;;;;;;;;4990442;28;19913;-57
2022/02/23 05:51:22;;;;;;;;;;;;;;;;;;4989369;28;19999;-52
2022/02/23 05:53:47;;;;;;;;;;;;;;;;;;5003085;28;19918;-54
2022/02/23 05:56:13;;;;;;;;;;;;;;;;;;4988478;28;20955;-57
2022/02/23 05:58:38;;;;;;;;;;;;;;;;;;4994553;28;20934;-56
2022/02/23 06:01:03;;;;;;;;;;;;;;;;;;4992025;28;20277;-55
2022/02/23 06:03:28;;;;;;;;;;;;;;;;;;4987446;28;20262;-53
2022/02/23 06:05:54;;;;;;;;;;;;;;;;;;4994331;28;19917;-56
2022/02/23 06:08:19;;;;;;;;;;;;;;;;;;4995082;28;19913;-55
2022/02/23 06:10:44;;;;;;;;;;;;;;;;;;4995612;28;19924;-56
2022/02/23 06:13:10;;;;;;;;;;;;;;;;;;4992200;28;19932;-57
2022/02/23 06:15:35;;;;;;;;;;;;;;;;;;4989273;28;19965;-56
2022/02/23 06:18:00;;;;;;;;;;;;;;;;;;4993148;28;19918;-56
2022/02/23 06:20:25;;;;;;;;;;;;;;;;;;4991666;28;19948;-56
2022/02/23 06:22:51;;;;;;;;;;;;;;;;;;4994185;28;19945;-58
2022/02/23 06:25:16;;;;;;;;;;;;;;;;;;4991482;28;19922;-58
2022/02/23 06:27:43;;;;;;;;;;;;;;;;;;4996022;28;19925;-58
2022/02/23 06:30:08;;;;;;;;;;;;;;;;;;4999356;28;20020;-58
2022/02/23 06:32:33;;;;;;;;;;;;;;;;;;4993184;28;20856;-55
2022/02/23 06:34:58;;;;;;;;;;;;;;;;;;4995143;28;19920;-59
2022/02/23 06:37:23;;;;;;;;;;;;;;;;;;4993571;28;20471;-58
2022/02/23 06:39:50;;;;;;;;;;;;;;;;;;4992231;28;20564;-57
2022/02/23 06:42:15;;;;;;;;;;;;;;;;;;4999385;28;19910;-57
2022/02/23 06:44:41;;;;;;;;;;;;;;;;;;4993435;28;19925;-54
2022/02/23 06:47:06;;;;;;;;;;;;;;;;;;4996910;28;20307;-56
2022/02/23 06:49:31;;;;;;;;;;;;;;;;;;4996881;28;19932;-56
2022/02/23 06:51:58;;;;;;;;;;;;;;;;;;4997166;28;19918;-56
2022/02/23 06:54:23;;;;;;;;;;;;;;;;;;4997649;28;19918;-54
2022/02/23 06:56:48;;;;;;;;;;;;;;;;;;4996217;28;19914;-57
2022/02/23 06:59:13;;;;;;;;;;;;;;;;;;4996574;28;19918;-54
2022/02/23 07:01:39;;;;;;;;;;;;;;;;;;4995598;28;19925;-53
2022/02/23 07:04:05;;;;;;;;;;;;;;;;;;4995054;28;19913;-56
2022/02/23 07:06:31;;;;;;;;;;;;;;;;;;4995119;28;19920;-57
2022/02/23 07:08:56;;;;;;;;;;;;;;;;;;4993908;28;19918;-56
2022/02/23 07:11:25;;;;;;;;;;;;;;;;;;4992257;28;19930;-58
2022/02/23 07:13:50;;;;;;;;;;;;;;;;;;4995767;28;20390;-58
2022/02/23 07:16:16;;;;;;;;;;;;;;;;;;4996986;28;19971;-57
2022/02/23 07:18:41;;;;;;;;;;;;;;;;;;4996743;28;20402;-57
2022/02/23 07:21:06;;;;;;;;;;;;;;;;;;4995286;28;19920;-56
2022/02/23 07:23:31;;;;;;;;;;;;;;;;;;4992007;28;19929;-55
2022/02/23 07:25:57;;;;;;;;;;;;;;;;;;4993865;28;19992;-58
2022/02/23 07:28:24;;;;;;;;;;;;;;;;;;4994093;28;19924;-59
2022/02/23 07:30:51;;;;;;;;;;;;;;;;;;4994735;28;19929;-56
2022/02/23 07:33:16;;;;;;;;;;;;;;;;;;4995441;28;19923;-55
2022/02/23 07:35:42;;;;;;;;;;;;;;;;;;4995605;28;20370;-57
2022/02/23 07:38:08;;;;;;;;;;;;;;;;;;4993088;28;19929;-59
2022/02/23 07:40:33;;;;;;;;;;;;;;;;;;4995926;28;19917;-55
2022/02/23 07:43:00;;;;;;;;;;;;;;;;;;4995718;28;19917;-57
2022/02/23 07:45:25;;;;;;;;;;;;;;;;;;4997256;28;19929;-58
2022/02/23 07:47:50;;;;;;;;;;;;;;;;;;4993926;28;19918;-55
2022/02/23 07:50:16;;;;;;;;;;;;;;;;;;4993562;28;19964;-58
2022/02/23 07:52:47;;;;;;;;;;;;;;;;;;4993884;28;20457;-56
2022/02/23 07:55:12;;;;;;;;;;;;;;;;;;5000326;28;19936;-57
2022/02/23 07:57:37;;;;;;;;;;;;;;;;;;4996941;28;19917;-57
2022/02/23 08:00:02;;;;;;;;;;;;;;;;;;4993784;28;20927;-58
2022/02/23 08:02:36;;;;;;;;;;;;;;;;;;4995274;28;19968;-55
2022/02/23 08:05:02;;;;;;;;;;;;;;;;;;4996928;28;19921;-53
2022/02/23 08:07:28;;;;;;;;;;;;;;;;;;4993661;28;19953;-55
2022/02/23 08:09:53;;;;;;;;;;;;;;;;;;4993865;28;19996;-55
2022/02/23 08:12:18;;;;;;;;;;;;;;;;;;4995553;28;20636;-56
2022/02/23 08:14:44;;;;;;;;;;;;;;;;;;4993828;28;19937;-55
2022/02/23 08:19:53;;;;;;;;;;;;;;;;;;4996015;28;20656;-56
2022/02/23 08:22:18;;;;;;;;;;;;;;;;;;4992928;28;20461;-58
2022/02/23 08:24:47;;;;;;;;;;;;;;;;;;4996059;28;19954;-55
2022/02/23 08:27:12;;;;;;;;;;;;;;;;;;4995037;28;19921;-58
2022/02/23 08:29:37;;;;;;;;;;;;;;;;;;4994673;28;19941;-56
2022/02/23 08:32:02;;;;;;;;;;;;;;;;;;4997489;28;19948;-56
2022/02/23 08:34:28;;;;;;;;;;;;;;;;;;4994753;28;20624;-58
2022/02/23 08:36:53;;;;;;;;;;;;;;;;;;4993586;28;19983;-55
2022/02/23 08:39:19;;;;;;;;;;;;;;;;;;4992625;28;19970;-55
2022/02/23 08:41:44;;;;;;;;;;;;;;;;;;4992321;28;20394;-56
2022/02/23 08:44:09;;;;;;;;;;;;;;;;;;4993513;28;19918;-57
2022/02/23 08:46:34;;;;;;;;;;;;;;;;;;4993137;28;19933;-56
2022/02/23 08:49:00;;;;;;;;;;;;;;;;;;4993052;28;19925;-55
2022/02/23 08:51:25;;;;;;;;;;;;;;;;;;4990018;28;19928;-58
2022/02/23 08:53:50;;;;;;;;;;;;;;;;;;4995543;28;20477;-56
2022/02/23 08:56:16;;;;;;;;;;;;;;;;;;4991083;28;20630;-56
2022/02/23 08:58:41;;;;;;;;;;;;;;;;;;4995549;28;19914;-56
2022/02/23 09:01:06;;;;;;;;;;;;;;;;;;4993505;28;19917;-57
2022/02/23 09:03:31;;;;;;;;;;;;;;;;;;5001863;28;20331;-57
2022/02/23 09:05:57;;;;;;;;;;;;;;;;;;4993971;28;19917;-55
2022/02/23 09:08:22;;;;;;;;;;;;;;;;;;4999005;28;20355;-54
2022/02/23 09:10:47;;;;;;;;;;;;;;;;;;4995181;28;20259;-56
2022/02/23 09:13:12;;;;;;;;;;;;;;;;;;4993048;28;20325;-54
2022/02/23 09:15:38;;;;;;;;;;;;;;;;;;4994641;28;19925;-58
2022/02/23 09:18:03;;;;;;;;;;;;;;;;;;4993249;28;19925;-56
2022/02/23 09:20:28;;;;;;;;;;;;;;;;;;4993418;28;20004;-56
2022/02/23 09:22:54;;;;;;;;;;;;;;;;;;4992060;28;20020;-57
2022/02/23 09:25:19;;;;;;;;;;;;;;;;;;4991717;28;19940;-57
2022/02/23 09:27:44;;;;;;;;;;;;;;;;;;4993878;28;19917;-55
2022/02/23 09:30:12;;;;;;;;;;;;;;;;;;4990646;28;19918;-56
2022/02/23 09:32:37;;;;;;;;;;;;;;;;;;4995091;28;19922;-55
2022/02/23 09:35:03;;;;;;;;;;;;;;;;;;4992092;28;19928;-53
2022/02/23 09:37:28;;;;;;;;;;;;;;;;;;4990782;28;19925;-55
2022/02/23 09:39:53;;;;;;;;;;;;;;;;;;4993935;28;19921;-57
2022/02/23 09:42:18;;;;;;;;;;;;;;;;;;4999049;28;19917;-57
2022/02/23 09:44:44;;;;;;;;;;;;;;;;;;4994201;28;20578;-53
2022/02/23 09:47:09;;;;;;;;;;;;;;;;;;4993719;28;19913;-56
2022/02/23 09:49:35;;;;;;;;;;;;;;;;;;4995707;28;19953;-57
2022/02/23 09:52:01;;;;;;;;;;;;;;;;;;4990396;28;20277;-57
2022/02/23 09:54:26;;;;;;;;;;;;;;;;;;4992338;28;19964;-55
2022/02/23 09:56:51;;;;;;;;;;;;;;;;;;4990619;28;20574;-56
2022/02/23 09:59:17;;;;;;;;;;;;;;;;;;4995084;28;20406;-57
2022/02/23 10:01:42;;;;;;;;;;;;;;;;;;4994556;28;19928;-56
2022/02/23 10:04:07;;;;;;;;;;;;;;;;;;4996783;28;19921;-56
2022/02/23 10:06:33;;;;;;;;;;;;;;;;;;4997212;28;19914;-60
2022/02/23 10:08:58;;;;;;;;;;;;;;;;;;4997344;28;19922;-57
2022/02/23 10:11:23;;;;;;;;;;;;;;;;;;4995604;28;20444;-55
2022/02/23 10:13:48;;;;;;;;;;;;;;;;;;4995138;28;20075;-55
2022/02/23 10:16:14;;;;;;;;;;;;;;;;;;4996550;28;19971;-55
2022/02/23 10:18:39;;;;;;;;;;;;;;;;;;4997306;28;19966;-53
2022/02/23 10:21:04;;;;;;;;;;;;;;;;;;4998038;28;20008;-55
2022/02/23 10:23:30;;;;;;;;;;;;;;;;;;4997029;28;19921;-56
2022/02/23 10:25:57;;;;;;;;;;;;;;;;;;4998936;28;19949;-57
2022/02/23 10:28:22;;;;;;;;;;;;;;;;;;4996931;28;19914;-58
2022/02/23 10:30:48;;;;;;;;;;;;;;;;;;4995679;28;20263;-57
2022/02/23 10:33:14;;;;;;;;;;;;;;;;;;4999736;28;19991;-57
2022/02/23 10:35:41;;;;;;;;;;;;;;;;;;4997766;28;20697;-56
2022/02/23 10:38:06;;;;;;;;;;;;;;;;;;4996535;28;19925;-57
2022/02/23 10:40:31;;;;;;;;;;;;;;;;;;4996081;28;19975;-57
2022/02/23 10:42:56;;;;;;;;;;;;;;;;;;4997120;28;19924;-56
2022/02/23 10:45:22;;;;;;;;;;;;;;;;;;4998902;28;19921;-56
2022/02/23 10:47:47;;;;;;;;;;;;;;;;;;4994481;28;19920;-57
2022/02/23 10:50:12;;;;;;;;;;;;;;;;;;4991021;28;19921;-56
2022/02/23 10:52:37;;;;;;;;;;;;;;;;;;4995660;28;19937;-56
2022/02/23 10:55:02;;;;;;;;;;;;;;;;;;4996815;28;20042;-56
2022/02/23 10:57:28;;;;;;;;;;;;;;;;;;4995860;28;20389;-55
2022/02/23 10:59:55;;;;;;;;;;;;;;;;;;4995392;28;20047;-54
2022/02/23 11:02:20;;;;;;;;;;;;;;;;;;4992276;28;19922;-58
2022/02/23 11:04:45;;;;;;;;;;;;;;;;;;4984523;28;19921;-56
2022/02/23 11:07:10;;;;;;;;;;;;;;;;;;4993588;28;19913;-57
2022/02/23 11:09:36;;;;;;;;;;;;;;;;;;4994924;28;20056;-55
2022/02/23 11:12:03;;;;;;;;;;;;;;;;;;4994119;28;19918;-56
2022/02/23 11:14:28;;;;;;;;;;;;;;;;;;4992440;28;19913;-57
2022/02/23 11:16:53;;;;;;;;;;;;;;;;;;4995418;28;20008;-57
2022/02/23 11:19:19;;;;;;;;;;;;;;;;;;4994764;28;20004;-57
2022/02/23 11:21:44;;;;;;;;;;;;;;;;;;4995388;28;20504;-55
2022/02/23 11:24:09;;;;;;;;;;;;;;;;;;4996261;28;19932;-57
2022/02/23 11:26:34;;;;;;;;;;;;;;;;;;4995929;28;19921;-56
2022/02/23 11:29:00;;;;;;;;;;;;;;;;;;4996873;28;20275;-57
2022/02/23 11:31:25;;;;;;;;;;;;;;;;;;4999666;28;19918;-57
2022/02/23 11:33:50;;;;;;;;;;;;;;;;;;4992596;28;19925;-57
2022/02/23 11:36:16;;;;;;;;;;;;;;;;;;4995310;28;19917;-56
2022/02/23 11:38:41;;;;;;;;;;;;;;;;;;4992022;28;19920;-55
2022/02/23 11:41:06;;;;;;;;;;;;;;;;;;4992104;28;19965;-54
2022/02/23 11:43:33;;;;;;;;;;;;;;;;;;5003347;28;19952;-56
2022/02/23 11:48:42;;;;;;;;;;;;;;;;;;4996009;28;20036;-55
2022/02/23 11:51:07;;;;;;;;;;;;;;;;;;5009198;28;19933;-57
2022/02/23 11:53:33;;;;;;;;;;;;;;;;;;4996555;28;19926;-54
2022/02/23 11:56:17;;;;;;;;;;;;;;;;;;4993226;28;19920;-54
2022/02/23 12:01:26;;;;;;;;;;;;;;;;;;4994896;28;19929;-57
2022/02/23 12:03:51;;;;;;;;;;;;;;;;;;4997739;28;20266;-55
2022/02/23 12:06:17;;;;;;;;;;;;;;;;;;4995671;28;20385;-56
2022/02/23 12:08:47;;;;;;;;;;;;;;;;;;4994394;28;20359;-56
2022/02/23 12:11:15;;;;;;;;;;;;;;;;;;4995850;28;19969;-56
2022/02/23 12:13:48;;;;;;;;;;;;;;;;;;4998843;28;19983;-53
2022/02/23 12:16:13;;;;;;;;;;;;;;;;;;4996546;28;20029;-55
2022/02/23 12:18:39;;;;;;;;;;;;;;;;;;4997410;28;20024;-55
2022/02/23 12:21:04;;;;;;;;;;;;;;;;;;4996203;28;20016;-56
2022/02/23 12:23:29;;;;;;;;;;;;;;;;;;4996043;28;20024;-55
2022/02/23 12:25:54;;;;;;;;;;;;;;;;;;4995810;28;19917;-58
2022/02/23 12:28:19;;;;;;;;;;;;;;;;;;5001770;28;19914;-54
2022/02/23 12:30:45;;;;;;;;;;;;;;;;;;4993614;28;20020;-57
2022/02/23 12:33:10;;;;;;;;;;;;;;;;;;4998303;28;19918;-53
2022/02/23 12:35:35;;;;;;;;;;;;;;;;;;4993547;28;19918;-56
2022/02/23 12:38:02;;;;;;;;;;;;;;;;;;4996381;28;19914;-58
2022/02/23 12:40:27;;;;;;;;;;;;;;;;;;4994499;28;20007;-57
2022/02/23 12:42:52;;;;;;;;;;;;;;;;;;4995848;28;20341;-58
2022/02/23 12:45:19;;;;;;;;;;;;;;;;;;4995261;28;20354;-56
2022/02/23 12:47:44;;;;;;;;;;;;;;;;;;4996857;28;20457;-56
2022/02/23 12:50:09;;;;;;;;;;;;;;;;;;4980619;28;19921;-57
2022/02/23 12:52:34;;;;;;;;;;;;;;;;;;4997132;28;20256;-57
2022/02/23 12:55:00;;;;;;;;;;;;;;;;;;4997649;28;20639;-58
2022/02/23 12:57:25;;;;;;;;;;;;;;;;;;4995290;28;20301;-60
2022/02/23 12:59:50;;;;;;;;;;;;;;;;;;4995826;28;20266;-56
2022/02/23 13:02:16;;;;;;;;;;;;;;;;;;4994819;28;20011;-57
2022/02/23 13:04:41;;;;;;;;;;;;;;;;;;4993737;28;19918;-58
2022/02/23 13:07:06;;;;;;;;;;;;;;;;;;4994314;28;19924;-56
2022/02/23 13:09:31;;;;;;;;;;;;;;;;;;4996770;28;19914;-57
2022/02/23 13:11:56;;;;;;;;;;;;;;;;;;4994695;28;19968;-56
2022/02/23 13:14:22;;;;;;;;;;;;;;;;;;4993305;28;20016;-56
2022/02/23 13:16:47;;;;;;;;;;;;;;;;;;4995219;28;19971;-56
2022/02/23 13:19:13;;;;;;;;;;;;;;;;;;4992641;28;19914;-56
2022/02/23 13:21:38;;;;;;;;;;;;;;;;;;4995347;28;19949;-57
2022/02/23 13:24:03;;;;;;;;;;;;;;;;;;4995758;28;20326;-58
2022/02/23 13:26:29;;;;;;;;;;;;;;;;;;4998806;28;19917;-57
2022/02/23 13:28:54;;;;;;;;;;;;;;;;;;4993665;28;19909;-57
2022/02/23 13:31:19;;;;;;;;;;;;;;;;;;4993695;28;19957;-57
2022/02/23 13:33:44;;;;;;;;;;;;;;;;;;4995560;28;19968;-57
2022/02/23 13:36:09;;;;;;;;;;;;;;;;;;4992921;28;19944;-57
2022/02/23 13:38:36;;;;;;;;;;;;;;;;;;4993407;28;19917;-57
2022/02/23 13:41:01;;;;;;;;;;;;;;;;;;4994252;28;19917;-56
2022/02/23 13:43:29;;;;;;;;;;;;;;;;;;4993769;28;19914;-58
2022/02/23 13:45:57;;;;;;;;;;;;;;;;;;4994788;28;19910;-57
2022/02/23 13:48:24;;;;;;;;;;;;;;;;;;4994286;28;19914;-57
2022/02/23 13:50:49;;;;;;;;;;;;;;;;;;4992191;28;20032;-56
2022/02/23 13:53:15;;;;;;;;;;;;;;;;;;4995986;28;20048;-57
2022/02/23 13:55:40;;;;;;;;;;;;;;;;;;4995658;28;19952;-58
2022/02/23 13:58:06;;;;;;;;;;;;;;;;;;4997349;28;19913;-57
2022/02/23 14:00:31;;;;;;;;;;;;;;;;;;4994221;28;19937;-57
2022/02/23 14:02:56;;;;;;;;;;;;;;;;;;4994030;28;19964;-56
2022/02/23 14:05:21;;;;;;;;;;;;;;;;;;4996091;28;19914;-57
2022/02/23 14:07:47;;;;;;;;;;;;;;;;;;4994850;28;19977;-58
2022/02/23 14:10:12;;;;;;;;;;;;;;;;;;4996688;28;19925;-57
2022/02/23 14:12:37;;;;;;;;;;;;;;;;;;4992651;28;19924;-57
2022/02/23 14:15:02;;;;;;;;;;;;;;;;;;4992473;28;19914;-57
2022/02/23 14:17:27;;;;;;;;;;;;;;;;;;4994678;28;19913;-57
2022/02/23 14:19:53;;;;;;;;;;;;;;;;;;4997300;28;19949;-58
2022/02/23 14:22:20;;;;;;;;;;;;;;;;;;4994370;28;20028;-57
2022/02/23 14:24:45;;;;;;;;;;;;;;;;;;4995490;28;19914;-58
2022/02/23 14:27:11;;;;;;;;;;;;;;;;;;4995176;28;20330;-57
2022/02/23 14:29:36;;;;;;;;;;;;;;;;;;4994294;28;19918;-56
2022/02/23 14:32:02;;;;;;;;;;;;;;;;;;4994489;28;19995;-59
2022/02/23 14:34:27;;;;;;;;;;;;;;;;;;4995414;28;19925;-59
2022/02/23 14:36:52;;;;;;;;;;;;;;;;;;4993403;28;19914;-54
2022/02/23 14:39:18;;;;;;;;;;;;;;;;;;5001926;28;19917;-56
2022/02/23 14:41:44;;;;;;;;;;;;;;;;;;4994901;28;19921;-57
2022/02/23 14:44:09;;;;;;;;;;;;;;;;;;4997251;28;19918;-57
2022/02/23 14:46:35;;;;;;;;;;;;;;;;;;4992647;28;19924;-57
2022/02/23 14:49:00;;;;;;;;;;;;;;;;;;4996266;28;19976;-57
2022/02/23 14:51:26;;;;;;;;;;;;;;;;;;4996682;28;20429;-56
2022/02/23 14:53:51;;;;;;;;;;;;;;;;;;4997283;28;19924;-57
2022/02/23 14:56:16;;;;;;;;;;;;;;;;;;4996129;28;19914;-56
2022/02/23 14:58:41;;;;;;;;;;;;;;;;;;4997922;28;20346;-58
2022/02/23 15:01:07;;;;;;;;;;;;;;;;;;5000229;28;20243;-57
2022/02/23 15:03:32;;;;;;;;;;;;;;;;;;4997835;28;20636;-57
2022/02/23 15:05:57;;;;;;;;;;;;;;;;;;5001688;28;20322;-57
2022/02/23 15:08:22;;;;;;;;;;;;;;;;;;4997595;28;19914;-57
2022/02/23 15:10:48;;;;;;;;;;;;;;;;;;5002090;28;19909;-56
2022/02/23 15:13:13;;;;;;;;;;;;;;;;;;4998419;28;19918;-55
2022/02/23 15:15:38;;;;;;;;;;;;;;;;;;4996563;28;19953;-56
2022/02/23 15:18:03;;;;;;;;;;;;;;;;;;4998989;28;19960;-57
2022/02/23 15:20:28;;;;;;;;;;;;;;;;;;4997204;28;20639;-58
2022/02/23 15:22:54;;;;;;;;;;;;;;;;;;4998986;28;20251;-59
2022/02/23 15:25:20;;;;;;;;;;;;;;;;;;4996907;28;19909;-58
2022/02/23 15:27:45;;;;;;;;;;;;;;;;;;5003803;28;20567;-57
2022/02/23 15:30:11;;;;;;;;;;;;;;;;;;4996724;28;20017;-57
2022/02/23 15:32:36;;;;;;;;;;;;;;;;;;4995871;28;19913;-67
2022/02/23 15:35:01;;;;;;;;;;;;;;;;;;4999794;28;19913;-66
2022/02/23 15:37:26;;;;;;;;;;;;;;;;;;4998877;28;19972;-67
2022/02/23 15:39:52;;;;;;;;;;;;;;;;;;4994464;28;19924;-67
2022/02/23 15:42:17;;;;;;;;;;;;;;;;;;4994054;28;20696;-67
2022/02/23 15:44:42;;;;;;;;;;;;;;;;;;4998192;28;19920;-67
2022/02/23 15:47:07;;;;;;;;;;;;;;;;;;4992616;28;20196;-67
2022/02/23 15:49:33;;;;;;;;;;;;;;;;;;4996889;28;19925;-67
2022/02/23 15:51:58;;;;;;;;;;;;;;;;;;4991530;28;19921;-66
2022/02/23 15:54:23;;;;;;;;;;;;;;;;;;4991478;28;20705;-66
2022/02/23 15:56:49;;;;;;;;;;;;;;;;;;4999700;28;19905;-66
2022/02/23 15:59:14;;;;;;;;;;;;;;;;;;4995648;28;20034;-66
2022/02/23 16:01:39;;;;;;;;;;;;;;;;;;4997913;28;19960;-67
2022/02/23 16:04:05;;;;;;;;;;;;;;;;;;4995111;28;20004;-67
2022/02/23 16:06:31;;;;;;;;;;;;;;;;;;4993251;28;19914;-67
2022/02/23 16:08:56;;;;;;;;;;;;;;;;;;4994542;28;19910;-67
2022/02/23 16:11:22;;;;;;;;;;;;;;;;;;4994923;28;19918;-66
2022/02/23 16:13:47;;;;;;;;;;;;;;;;;;4999619;28;20592;-66
2022/02/23 16:16:12;;;;;;;;;;;;;;;;;;4994032;28;19909;-66
2022/02/23 16:18:37;;;;;;;;;;;;;;;;;;4991549;28;19949;-66
2022/02/23 16:21:03;;;;;;;;;;;;;;;;;;4998620;28;19910;-66
2022/02/23 16:23:28;;;;;;;;;;;;;;;;;;4991688;28;20393;-66
2022/02/23 16:25:53;;;;;;;;;;;;;;;;;;4994453;28;20350;-66
2022/02/23 16:28:18;;;;;;;;;;;;;;;;;;4993637;28;19913;-68
2022/02/23 16:30:45;;;;;;;;;;;;;;;;;;4993454;28;19921;-66
2022/02/23 16:33:10;;;;;;;;;;;;;;;;;;4994900;28;20345;-65
2022/02/23 16:35:36;;;;;;;;;;;;;;;;;;4990174;28;19920;-66
2022/02/23 16:38:03;;;;;;;;;;;;;;;;;;4993150;28;19910;-67
2022/02/23 16:40:28;;;;;;;;;;;;;;;;;;4993945;28;20315;-67